createdAt,value
2023-05-12T00:01:31.120Z,53.52
2023-05-12T00:06:30.396Z,52.09
2023-05-12T00:11:29.662Z,53.52
2023-05-12T00:16:28.938Z,52.92
2023-05-12T00:21:28.197Z,52.49
2023-05-12T00:26:28.477Z,53.52
2023-05-12T00:31:26.747Z,53.52
2023-05-12T00:36:25.969Z,53.22
2023-05-12T00:41:25.209Z,53.22
2023-05-12T00:46:25.486Z,52.82
2023-05-12T00:51:23.694Z,52.72
2023-05-12T00:56:22.940Z,52.42
2023-05-12T01:01:22.199Z,51.99
2023-05-12T01:06:21.420Z,52.89
2023-05-12T01:11:21.641Z,51.06
2023-05-12T01:16:19.846Z,52.09
2023-05-12T01:21:19.110Z,51.89
2023-05-12T01:26:19.354Z,52.82
2023-05-12T01:31:21.151Z,53.12
2023-05-12T01:36:17.730Z,53.65
2023-05-12T01:41:15.980Z,53.14
2023-05-12T01:46:15.280Z,52.09
2023-05-12T01:51:13.504Z,52.42
2023-05-12T01:56:14.776Z,52.42
2023-05-12T02:01:13.061Z,52.92
2023-05-12T02:06:13.304Z,53.32
2023-05-12T02:11:12.565Z,53.85
2023-05-12T02:16:10.843Z,53.45
2023-05-12T02:21:10.145Z,53.12
2023-05-12T02:26:09.413Z,52.82
2023-05-12T02:31:09.684Z,52.82
2023-05-12T02:36:08.959Z,53.32
2023-05-12T02:41:08.233Z,53.55
2023-05-12T02:46:07.506Z,53.05
2023-05-12T02:51:06.727Z,53.32
2023-05-12T02:56:05.939Z,53.65
2023-05-12T03:01:10.569Z,54.25
2023-05-12T03:06:05.436Z,53.34
2023-05-12T03:11:02.706Z,54.46
2023-05-12T03:16:05.984Z,52.94
2023-05-12T03:21:01.219Z,53.85
2023-05-12T03:26:02.509Z,54.05
2023-05-12T03:30:59.977Z,53.75
2023-05-12T03:35:59.079Z,54.36
2023-05-12T03:40:59.329Z,54.05
2023-05-12T03:45:57.619Z,53.85
2023-05-12T03:50:55.839Z,54.56
2023-05-12T03:55:57.090Z,54.58
2023-05-12T04:00:56.316Z,54.58
2023-05-12T04:05:54.706Z,54.99
2023-05-12T04:10:52.764Z,53.75
2023-05-12T04:15:57.192Z,53.65
2023-05-12T04:20:52.193Z,53.34
2023-05-12T04:25:51.424Z,53.55
2023-05-12T04:30:51.675Z,54.08
2023-05-12T04:35:49.928Z,53.96
2023-05-12T04:40:49.183Z,53.96
2023-05-12T04:45:49.488Z,54.38
2023-05-12T04:50:47.687Z,55.62
2023-05-12T04:55:47.918Z,54.48
2023-05-12T05:00:48.148Z,53.45
2023-05-12T05:05:45.368Z,51.91
2023-05-12T05:10:44.620Z,53.05
2023-05-12T05:15:43.888Z,52.22
2023-05-12T05:20:45.283Z,52.31
2023-05-12T05:25:43.256Z,53.55
2023-05-12T05:30:41.529Z,53.65
2023-05-12T05:35:40.791Z,53.55
2023-05-12T05:40:52.334Z,52.51
2023-05-12T05:45:40.389Z,52.62
2023-05-12T05:50:38.645Z,52.69
2023-05-12T05:55:37.915Z,53.02
2023-05-12T06:00:39.180Z,52.80
2023-05-12T06:05:36.324Z,54.05
2023-05-12T06:10:35.633Z,53.63
2023-05-12T06:15:35.912Z,52.22
2023-05-12T06:20:34.200Z,52.82
2023-05-12T06:25:33.528Z,52.51
2023-05-12T06:30:34.827Z,52.19
2023-05-12T06:35:32.115Z,51.71
2023-05-12T06:40:31.409Z,51.89
2023-05-12T06:45:31.729Z,51.61
2023-05-12T06:50:31.021Z,50.98
2023-05-12T06:55:29.318Z,51.48
2023-05-12T07:00:28.636Z,51.99
2023-05-12T07:05:27.962Z,50.56
2023-05-12T07:10:28.251Z,50.02
2023-05-12T07:15:26.531Z,51.16
2023-05-12T07:20:25.900Z,50.35
2023-05-12T07:25:25.145Z,49.52
2023-05-12T07:30:24.247Z,50.13
2023-05-12T07:35:25.576Z,49.73
2023-05-12T07:40:23.872Z,49.10
2023-05-12T07:45:22.220Z,49.40
2023-05-12T07:50:21.511Z,47.79
2023-05-12T07:55:21.148Z,48.90
2023-05-12T08:00:19.083Z,48.90
2023-05-12T08:05:20.630Z,49.73
2023-05-12T08:10:19.634Z,48.79
2023-05-12T08:15:19.100Z,48.17
2023-05-12T08:20:19.287Z,47.86
2023-05-12T08:25:16.591Z,47.85
2023-05-12T08:30:15.870Z,46.84
2023-05-12T08:35:15.192Z,48.37
2023-05-12T08:40:14.529Z,48.47
2023-05-12T08:45:14.831Z,47.97
2023-05-12T08:50:13.146Z,47.85
2023-05-12T08:55:14.453Z,48.25
2023-05-12T09:00:11.761Z,48.55
2023-05-12T09:05:12.101Z,48.67
2023-05-12T09:10:19.657Z,48.25
2023-05-12T09:15:09.594Z,48.44
2023-05-12T09:20:17.696Z,48.22
2023-05-12T09:25:07.893Z,48.75
2023-05-12T09:30:07.233Z,49.65
2023-05-12T09:35:06.545Z,50.66
2023-05-12T09:40:06.900Z,49.95
2023-05-12T09:45:06.028Z,50.56
2023-05-12T09:50:05.407Z,50.13
2023-05-12T09:55:04.520Z,49.85
2023-05-12T10:00:06.013Z,50.15
2023-05-12T10:05:03.223Z,49.55
2023-05-12T10:10:01.380Z,50.28
2023-05-12T10:15:01.599Z,49.98
2023-05-12T10:20:00.882Z,50.18
2023-05-12T10:24:59.196Z,49.98
2023-05-12T10:29:58.508Z,49.88
2023-05-12T10:34:59.229Z,49.35
2023-05-12T10:39:59.133Z,49.02
2023-05-12T10:44:56.582Z,48.72
2023-05-12T10:49:55.699Z,48.43
2023-05-12T10:54:55.067Z,48.20
2023-05-12T10:59:55.433Z,48.52
2023-05-12T11:04:53.547Z,47.70
2023-05-12T11:09:57.671Z,47.19
2023-05-12T11:14:52.798Z,47.09
2023-05-12T11:19:53.047Z,46.87
2023-05-12T11:24:50.309Z,46.89
2023-05-12T11:29:49.554Z,47.09
2023-05-12T11:34:48.801Z,47.09
2023-05-12T11:39:48.054Z,46.69
2023-05-12T11:44:48.407Z,46.57
2023-05-12T11:49:46.553Z,46.47
2023-05-12T11:54:45.797Z,46.77
2023-05-12T11:59:46.040Z,46.80
2023-05-12T12:04:47.437Z,47.00
2023-05-12T12:09:44.466Z,46.47
2023-05-12T12:14:42.733Z,46.77
2023-05-12T12:19:42.986Z,46.65
2023-05-12T12:24:42.221Z,46.07
2023-05-12T12:29:40.424Z,45.95
2023-05-12T12:34:40.667Z,45.75
2023-05-12T12:39:39.905Z,45.65
2023-05-12T12:44:40.203Z,45.45
2023-05-12T12:49:37.426Z,45.14
2023-05-12T12:54:37.705Z,45.14
2023-05-12T12:59:36.925Z,45.42
2023-05-12T13:04:36.175Z,45.22
2023-05-12T13:09:34.421Z,45.32
2023-05-12T13:14:34.681Z,45.34
2023-05-12T13:19:36.509Z,45.75
2023-05-12T13:24:32.233Z,45.53
2023-05-12T13:29:31.479Z,45.53
2023-05-12T13:34:30.729Z,45.75
2023-05-12T13:39:29.974Z,45.65
2023-05-12T13:44:29.241Z,46.15
2023-05-12T13:49:29.493Z,45.92
2023-05-12T13:54:27.745Z,46.03
2023-05-12T13:59:26.983Z,46.23
2023-05-12T14:04:25.201Z,45.72
2023-05-12T14:09:25.455Z,45.83
2023-05-12T14:14:26.719Z,46.03
2023-05-12T14:19:23.971Z,45.92
2023-05-12T14:24:24.197Z,45.92
2023-05-12T14:29:23.446Z,45.72
2023-05-12T14:34:21.700Z,45.45
2023-05-12T14:39:20.965Z,44.84
2023-05-12T14:44:20.246Z,44.74
2023-05-12T14:49:19.516Z,44.54
2023-05-12T14:54:25.133Z,44.52
2023-05-12T14:59:18.086Z,44.52
2023-05-12T15:04:18.388Z,44.72
2023-05-12T15:09:17.621Z,44.62
2023-05-12T15:14:15.837Z,44.60
2023-05-12T15:19:16.149Z,44.50
2023-05-12T15:24:15.340Z,44.30
2023-05-12T15:29:14.556Z,44.30
2023-05-12T15:34:13.768Z,44.20
2023-05-12T15:39:12.068Z,44.00
2023-05-12T15:44:11.339Z,44.30
2023-05-12T15:49:10.546Z,45.20
2023-05-12T15:54:10.806Z,46.30
2023-05-12T15:59:11.123Z,47.81
2023-05-12T16:04:08.411Z,48.93
2023-05-12T16:09:07.843Z,48.86
2023-05-12T16:14:06.922Z,49.86
2023-05-12T16:19:07.275Z,49.66
2023-05-12T16:24:06.270Z,47.35
2023-05-12T16:29:03.575Z,47.47
2023-05-12T16:34:04.870Z,47.17
2023-05-12T16:39:03.151Z,48.68
2023-05-12T16:44:02.637Z,49.58
2023-05-12T16:49:02.842Z,51.61
2023-05-12T16:54:00.877Z,51.21
2023-05-12T16:59:01.290Z,51.64
2023-05-12T17:04:00.522Z,51.34
2023-05-12T17:08:59.646Z,51.94
2023-05-12T17:13:59.222Z,49.66
2023-05-12T17:23:56.400Z,47.36
2023-05-12T17:28:56.751Z,45.42
2023-05-12T17:33:55.844Z,44.79
2023-05-12T17:38:54.020Z,44.37
2023-05-12T17:43:54.541Z,43.75
2023-05-12T17:48:52.373Z,43.23
2023-05-12T17:53:51.610Z,43.13
2023-05-12T17:58:50.929Z,42.61
2023-05-12T18:03:50.209Z,42.81
2023-05-12T18:08:51.441Z,42.71
2023-05-12T18:13:49.598Z,42.40
2023-05-12T18:18:47.880Z,41.28
2023-05-12T18:23:47.938Z,41.99
2023-05-12T18:28:46.145Z,41.60
2023-05-12T18:33:46.412Z,40.70
2023-05-12T18:38:44.688Z,39.88
2023-05-12T18:43:44.973Z,38.96
2023-05-12T18:48:42.283Z,39.18
2023-05-12T18:53:42.310Z,39.28
2023-05-12T18:58:41.615Z,39.08
2023-05-12T19:03:41.948Z,40.16
2023-05-12T19:08:40.252Z,39.96
2023-05-12T19:13:39.524Z,40.48
2023-05-12T19:18:39.977Z,41.08
2023-05-12T19:23:38.005Z,40.44
2023-05-12T19:28:37.222Z,40.14
2023-05-12T19:33:37.491Z,39.54
2023-05-12T19:38:35.725Z,39.44
2023-05-12T19:43:37.037Z,39.26
2023-05-12T19:48:34.268Z,40.26
2023-05-12T19:53:34.486Z,39.96
2023-05-12T19:58:32.682Z,40.24
2023-05-12T20:03:31.982Z,39.83
2023-05-12T20:08:31.196Z,40.94
2023-05-12T20:13:30.382Z,41.80
2023-05-12T20:18:29.554Z,41.09
2023-05-12T20:23:30.847Z,40.62
2023-05-12T20:28:30.110Z,41.31
2023-05-12T20:33:27.317Z,42.95
2023-05-12T20:38:25.530Z,42.95
2023-05-12T20:43:25.823Z,42.33
2023-05-12T20:48:25.263Z,42.95
2023-05-12T20:53:26.176Z,43.18
2023-05-12T20:58:23.351Z,43.15
2023-05-12T21:03:23.292Z,42.61
2023-05-12T21:08:22.762Z,42.73
2023-05-12T21:13:20.856Z,43.15
2023-05-12T21:18:20.173Z,43.90
2023-05-12T21:23:20.503Z,43.05
2023-05-12T21:28:19.218Z,43.48
2023-05-12T21:33:18.959Z,42.43
2023-05-12T21:38:17.294Z,43.77
2023-05-12T21:43:16.572Z,44.39
2023-05-12T21:48:16.928Z,43.48
2023-05-12T21:53:15.235Z,43.25
2023-05-12T21:58:14.513Z,43.45
2023-05-12T22:03:13.924Z,43.85
2023-05-12T22:08:14.275Z,43.85
2023-05-12T22:13:13.353Z,42.71
2023-05-12T22:18:11.633Z,43.45
2023-05-12T22:23:10.901Z,42.61
2023-05-12T22:28:11.235Z,43.11
2023-05-12T22:33:09.538Z,43.31
2023-05-12T22:38:08.653Z,43.31
2023-05-12T22:43:11.067Z,43.09
2023-05-12T22:48:08.366Z,41.53
2023-05-12T22:53:07.349Z,40.94
2023-05-12T22:58:07.710Z,40.40
2023-05-12T23:03:04.843Z,41.03
2023-05-12T23:08:04.211Z,42.49
2023-05-12T23:13:04.426Z,43.63
2023-05-12T23:18:02.608Z,43.95
2023-05-12T23:23:01.719Z,44.78
2023-05-12T23:28:02.124Z,45.20
2023-05-12T23:33:00.353Z,45.51
2023-05-12T23:37:59.481Z,45.74
2023-05-12T23:42:59.706Z,46.36
2023-05-12T23:47:57.870Z,46.96
2023-05-12T23:52:58.043Z,47.08
2023-05-12T23:57:56.354Z,47.50
